sensor_id;sensor_type;location;lat;lon;timestamp;P1;durP1;ratioP1;P2;durP2;ratioP2
47539;SDS011;33280;52.152;21.052;2022-11-11T00:00:09;32.40;;;18.03;;
47539;SDS011;33280;52.152;21.052;2022-11-11T00:02:48;33.03;;;17.90;;
47539;SDS011;33280;52.152;21.052;2022-11-11T00:05:45;32.83;;;17.47;;
47539;SDS011;33280;52.152;21.052;2022-11-11T00:08:22;29.27;;;17.07;;
47539;SDS011;33280;52.152;21.052;2022-11-11T00:11:15;34.67;;;17.20;;
47539;SDS011;33280;52.152;21.052;2022-11-11T00:13:58;33.40;;;16.80;;
47539;SDS011;33280;52.152;21.052;2022-11-11T00:16:35;32.03;;;16.67;;
47539;SDS011;33280;52.152;21.052;2022-11-11T00:19:53;31.13;;;15.90;;
47539;SDS011;33280;52.152;21.052;2022-11-11T00:22:53;30.67;;;16.80;;
47539;SDS011;33280;52.152;21.052;2022-11-11T00:25:42;29.13;;;16.27;;
47539;SDS011;33280;52.152;21.052;2022-11-11T00:28:12;33.97;;;16.93;;
47539;SDS011;33280;52.152;21.052;2022-11-11T00:31:04;27.70;;;16.23;;
47539;SDS011;33280;52.152;21.052;2022-11-11T00:33:36;31.57;;;15.90;;
47539;SDS011;33280;52.152;21.052;2022-11-11T00:36:20;31.40;;;16.97;;
47539;SDS011;33280;52.152;21.052;2022-11-11T00:39:17;31.23;;;15.77;;
47539;SDS011;33280;52.152;21.052;2022-11-11T00:41:55;47.80;;;17.07;;
47539;SDS011;33280;52.152;21.052;2022-11-11T00:44:26;34.07;;;17.10;;
47539;SDS011;33280;52.152;21.052;2022-11-11T00:47:10;31.03;;;16.57;;
47539;SDS011;33280;52.152;21.052;2022-11-11T00:50:04;31.60;;;16.03;;
47539;SDS011;33280;52.152;21.052;2022-11-11T00:52:52;32.43;;;15.63;;
47539;SDS011;33280;52.152;21.052;2022-11-11T00:55:19;33.00;;;16.23;;
47539;SDS011;33280;52.152;21.052;2022-11-11T00:57:46;33.83;;;16.80;;
47539;SDS011;33280;52.152;21.052;2022-11-11T01:00:13;32.13;;;16.53;;
47539;SDS011;33280;52.152;21.052;2022-11-11T01:02:41;37.27;;;17.13;;
47539;SDS011;33280;52.152;21.052;2022-11-11T01:05:10;34.37;;;16.73;;
47539;SDS011;33280;52.152;21.052;2022-11-11T01:07:37;35.83;;;17.03;;
47539;SDS011;33280;52.152;21.052;2022-11-11T01:10:04;39.60;;;17.53;;
47539;SDS011;33280;52.152;21.052;2022-11-11T01:12:32;29.80;;;16.80;;
47539;SDS011;33280;52.152;21.052;2022-11-11T01:14:59;30.07;;;16.47;;
47539;SDS011;33280;52.152;21.052;2022-11-11T01:17:27;31.90;;;16.27;;
47539;SDS011;33280;52.152;21.052;2022-11-11T01:19:55;33.33;;;16.33;;
47539;SDS011;33280;52.152;21.052;2022-11-11T01:22:22;31.57;;;16.23;;
47539;SDS011;33280;52.152;21.052;2022-11-11T01:24:52;33.40;;;16.77;;
47539;SDS011;33280;52.152;21.052;2022-11-11T01:27:19;31.37;;;16.27;;
47539;SDS011;33280;52.152;21.052;2022-11-11T01:29:46;36.50;;;17.17;;
47539;SDS011;33280;52.152;21.052;2022-11-11T01:32:13;32.20;;;15.70;;
47539;SDS011;33280;52.152;21.052;2022-11-11T01:34:41;35.47;;;15.87;;
47539;SDS011;33280;52.152;21.052;2022-11-11T01:37:08;33.03;;;16.50;;
47539;SDS011;33280;52.152;21.052;2022-11-11T01:39:35;44.67;;;16.63;;
47539;SDS011;33280;52.152;21.052;2022-11-11T01:42:02;29.57;;;16.27;;
47539;SDS011;33280;52.152;21.052;2022-11-11T01:44:42;31.10;;;15.47;;
47539;SDS011;33280;52.152;21.052;2022-11-11T01:47:12;31.37;;;16.03;;
47539;SDS011;33280;52.152;21.052;2022-11-11T01:49:50;30.60;;;16.10;;
47539;SDS011;33280;52.152;21.052;2022-11-11T01:52:29;32.27;;;16.37;;
47539;SDS011;33280;52.152;21.052;2022-11-11T01:55:23;30.13;;;15.23;;
47539;SDS011;33280;52.152;21.052;2022-11-11T01:57:56;35.57;;;16.63;;
47539;SDS011;33280;52.152;21.052;2022-11-11T02:00:28;32.23;;;16.60;;
47539;SDS011;33280;52.152;21.052;2022-11-11T02:03:02;28.63;;;15.07;;
47539;SDS011;33280;52.152;21.052;2022-11-11T02:05:32;32.33;;;16.10;;
47539;SDS011;33280;52.152;21.052;2022-11-11T02:11:04;28.07;;;15.40;;
47539;SDS011;33280;52.152;21.052;2022-11-11T02:13:36;28.87;;;15.00;;
47539;SDS011;33280;52.152;21.052;2022-11-11T02:16:24;31.17;;;15.73;;
47539;SDS011;33280;52.152;21.052;2022-11-11T02:18:51;32.60;;;15.70;;
47539;SDS011;33280;52.152;21.052;2022-11-11T02:21:24;27.47;;;15.27;;
47539;SDS011;33280;52.152;21.052;2022-11-11T02:24:13;30.93;;;15.17;;
47539;SDS011;33280;52.152;21.052;2022-11-11T02:26:43;29.90;;;16.40;;
47539;SDS011;33280;52.152;21.052;2022-11-11T02:29:12;32.17;;;15.77;;
47539;SDS011;33280;52.152;21.052;2022-11-11T02:31:43;41.00;;;16.33;;
47539;SDS011;33280;52.152;21.052;2022-11-11T02:34:16;36.33;;;15.67;;
47539;SDS011;33280;52.152;21.052;2022-11-11T02:36:46;35.73;;;15.27;;
47539;SDS011;33280;52.152;21.052;2022-11-11T02:39:17;31.00;;;15.53;;
47539;SDS011;33280;52.152;21.052;2022-11-11T02:42:02;38.40;;;15.70;;
47539;SDS011;33280;52.152;21.052;2022-11-11T02:44:35;38.50;;;16.17;;
47539;SDS011;33280;52.152;21.052;2022-11-11T02:47:09;33.47;;;15.97;;
47539;SDS011;33280;52.152;21.052;2022-11-11T02:49:42;30.83;;;15.37;;
47539;SDS011;33280;52.152;21.052;2022-11-11T02:52:09;35.70;;;15.80;;
47539;SDS011;33280;52.152;21.052;2022-11-11T02:54:37;29.63;;;15.70;;
47539;SDS011;33280;52.152;21.052;2022-11-11T02:57:06;30.43;;;16.20;;
47539;SDS011;33280;52.152;21.052;2022-11-11T02:59:37;31.67;;;15.90;;
47539;SDS011;33280;52.152;21.052;2022-11-11T03:02:07;29.73;;;15.57;;
47539;SDS011;33280;52.152;21.052;2022-11-11T03:04:35;30.50;;;15.70;;
47539;SDS011;33280;52.152;21.052;2022-11-11T03:07:04;31.27;;;15.40;;
47539;SDS011;33280;52.152;21.052;2022-11-11T03:09:32;31.80;;;15.80;;
47539;SDS011;33280;52.152;21.052;2022-11-11T03:12:00;30.03;;;15.13;;
47539;SDS011;33280;52.152;21.052;2022-11-11T03:14:28;35.27;;;15.93;;
47539;SDS011;33280;52.152;21.052;2022-11-11T03:16:55;36.70;;;15.87;;
47539;SDS011;33280;52.152;21.052;2022-11-11T03:19:47;30.00;;;15.77;;
47539;SDS011;33280;52.152;21.052;2022-11-11T03:22:42;28.97;;;15.17;;
47539;SDS011;33280;52.152;21.052;2022-11-11T03:25:20;30.13;;;15.80;;
47539;SDS011;33280;52.152;21.052;2022-11-11T03:30:38;34.63;;;15.73;;
47539;SDS011;33280;52.152;21.052;2022-11-11T03:33:10;38.87;;;16.63;;
47539;SDS011;33280;52.152;21.052;2022-11-11T03:35:39;27.60;;;15.40;;
47539;SDS011;33280;52.152;21.052;2022-11-11T03:38:16;32.90;;;15.80;;
47539;SDS011;33280;52.152;21.052;2022-11-11T03:40:53;30.47;;;14.77;;
47539;SDS011;33280;52.152;21.052;2022-11-11T03:43:33;30.53;;;15.70;;
47539;SDS011;33280;52.152;21.052;2022-11-11T03:46:02;28.07;;;15.93;;
47539;SDS011;33280;52.152;21.052;2022-11-11T03:48:32;28.80;;;15.57;;
47539;SDS011;33280;52.152;21.052;2022-11-11T03:51:00;33.87;;;15.83;;
47539;SDS011;33280;52.152;21.052;2022-11-11T03:53:29;31.00;;;15.67;;
47539;SDS011;33280;52.152;21.052;2022-11-11T03:55:56;34.30;;;16.40;;
47539;SDS011;33280;52.152;21.052;2022-11-11T03:58:23;34.23;;;16.13;;
47539;SDS011;33280;52.152;21.052;2022-11-11T04:00:53;31.70;;;15.80;;
47539;SDS011;33280;52.152;21.052;2022-11-11T04:03:24;31.97;;;15.60;;
47539;SDS011;33280;52.152;21.052;2022-11-11T04:06:10;29.03;;;15.80;;
47539;SDS011;33280;52.152;21.052;2022-11-11T04:08:56;31.37;;;15.00;;
47539;SDS011;33280;52.152;21.052;2022-11-11T04:11:44;31.57;;;15.63;;
47539;SDS011;33280;52.152;21.052;2022-11-11T04:14:20;33.90;;;15.47;;
47539;SDS011;33280;52.152;21.052;2022-11-11T04:17:06;29.60;;;15.10;;
47539;SDS011;33280;52.152;21.052;2022-11-11T04:19:33;33.97;;;15.57;;
47539;SDS011;33280;52.152;21.052;2022-11-11T04:22:30;31.37;;;14.67;;
47539;SDS011;33280;52.152;21.052;2022-11-11T04:24:57;29.27;;;15.20;;
47539;SDS011;33280;52.152;21.052;2022-11-11T04:28:07;33.13;;;15.00;;
47539;SDS011;33280;52.152;21.052;2022-11-11T04:30:53;29.17;;;14.80;;
47539;SDS011;33280;52.152;21.052;2022-11-11T04:33:26;32.03;;;15.43;;
47539;SDS011;33280;52.152;21.052;2022-11-11T04:35:53;30.20;;;14.33;;
47539;SDS011;33280;52.152;21.052;2022-11-11T04:38:20;32.63;;;15.60;;
47539;SDS011;33280;52.152;21.052;2022-11-11T04:41:12;28.63;;;14.70;;
47539;SDS011;33280;52.152;21.052;2022-11-11T04:43:41;32.87;;;15.33;;
47539;SDS011;33280;52.152;21.052;2022-11-11T04:46:27;29.50;;;14.80;;
47539;SDS011;33280;52.152;21.052;2022-11-11T04:48:54;28.43;;;14.77;;
47539;SDS011;33280;52.152;21.052;2022-11-11T04:51:37;28.63;;;14.30;;
47539;SDS011;33280;52.152;21.052;2022-11-11T04:54:26;28.10;;;14.43;;
47539;SDS011;33280;52.152;21.052;2022-11-11T04:56:55;29.20;;;14.40;;
47539;SDS011;33280;52.152;21.052;2022-11-11T04:59:33;26.30;;;14.20;;
47539;SDS011;33280;52.152;21.052;2022-11-11T05:02:04;26.73;;;13.90;;
47539;SDS011;33280;52.152;21.052;2022-11-11T05:05:02;30.60;;;14.23;;
47539;SDS011;33280;52.152;21.052;2022-11-11T05:07:33;25.77;;;14.00;;
47539;SDS011;33280;52.152;21.052;2022-11-11T05:10:21;29.97;;;14.17;;
47539;SDS011;33280;52.152;21.052;2022-11-11T05:12:48;27.60;;;14.20;;
47539;SDS011;33280;52.152;21.052;2022-11-11T05:15:20;30.30;;;14.30;;
47539;SDS011;33280;52.152;21.052;2022-11-11T05:18:11;27.17;;;13.83;;
47539;SDS011;33280;52.152;21.052;2022-11-11T05:20:58;33.90;;;13.57;;
47539;SDS011;33280;52.152;21.052;2022-11-11T05:23:45;22.93;;;12.47;;
47539;SDS011;33280;52.152;21.052;2022-11-11T05:26:34;25.43;;;13.67;;
47539;SDS011;33280;52.152;21.052;2022-11-11T05:29:01;29.73;;;13.90;;
47539;SDS011;33280;52.152;21.052;2022-11-11T05:31:37;27.80;;;13.17;;
47539;SDS011;33280;52.152;21.052;2022-11-11T05:34:30;29.87;;;13.00;;
47539;SDS011;33280;52.152;21.052;2022-11-11T05:36:58;29.90;;;13.07;;
47539;SDS011;33280;52.152;21.052;2022-11-11T05:39:25;25.67;;;13.30;;
47539;SDS011;33280;52.152;21.052;2022-11-11T05:41:58;26.80;;;13.00;;
47539;SDS011;33280;52.152;21.052;2022-11-11T05:44:28;23.63;;;12.53;;
47539;SDS011;33280;52.152;21.052;2022-11-11T05:47:08;23.60;;;12.17;;
47539;SDS011;33280;52.152;21.052;2022-11-11T05:49:36;25.13;;;12.30;;
47539;SDS011;33280;52.152;21.052;2022-11-11T05:52:17;24.70;;;12.73;;
47539;SDS011;33280;52.152;21.052;2022-11-11T05:54:46;25.33;;;12.93;;
47539;SDS011;33280;52.152;21.052;2022-11-11T05:57:14;26.77;;;12.97;;
47539;SDS011;33280;52.152;21.052;2022-11-11T05:59:41;24.67;;;12.27;;
47539;SDS011;33280;52.152;21.052;2022-11-11T06:02:09;27.90;;;12.93;;
47539;SDS011;33280;52.152;21.052;2022-11-11T06:04:41;23.27;;;11.90;;
47539;SDS011;33280;52.152;21.052;2022-11-11T06:07:29;24.47;;;12.20;;
47539;SDS011;33280;52.152;21.052;2022-11-11T06:09:57;28.97;;;12.80;;
47539;SDS011;33280;52.152;21.052;2022-11-11T06:12:48;24.27;;;12.37;;
47539;SDS011;33280;52.152;21.052;2022-11-11T06:15:37;25.67;;;12.33;;
47539;SDS011;33280;52.152;21.052;2022-11-11T06:18:05;25.23;;;11.40;;
47539;SDS011;33280;52.152;21.052;2022-11-11T06:20:45;21.97;;;11.40;;
47539;SDS011;33280;52.152;21.052;2022-11-11T06:23:36;26.43;;;12.00;;
47539;SDS011;33280;52.152;21.052;2022-11-11T06:26:04;24.43;;;12.33;;
47539;SDS011;33280;52.152;21.052;2022-11-11T06:28:51;24.53;;;12.70;;
47539;SDS011;33280;52.152;21.052;2022-11-11T06:31:42;22.43;;;12.00;;
47539;SDS011;33280;52.152;21.052;2022-11-11T06:34:18;23.07;;;12.07;;
47539;SDS011;33280;52.152;21.052;2022-11-11T06:36:48;24.03;;;11.93;;
47539;SDS011;33280;52.152;21.052;2022-11-11T06:39:27;24.43;;;11.30;;
47539;SDS011;33280;52.152;21.052;2022-11-11T06:41:54;25.30;;;11.80;;
47539;SDS011;33280;52.152;21.052;2022-11-11T06:44:49;24.80;;;10.93;;
47539;SDS011;33280;52.152;21.052;2022-11-11T06:47:16;26.70;;;12.30;;
47539;SDS011;33280;52.152;21.052;2022-11-11T06:50:04;24.33;;;11.60;;
47539;SDS011;33280;52.152;21.052;2022-11-11T06:52:40;29.97;;;11.97;;
47539;SDS011;33280;52.152;21.052;2022-11-11T06:55:07;25.60;;;11.23;;
47539;SDS011;33280;52.152;21.052;2022-11-11T06:57:38;22.03;;;11.40;;
47539;SDS011;33280;52.152;21.052;2022-11-11T07:00:07;21.23;;;11.63;;
47539;SDS011;33280;52.152;21.052;2022-11-11T07:02:40;22.83;;;11.13;;
47539;SDS011;33280;52.152;21.052;2022-11-11T07:05:07;22.60;;;10.83;;
47539;SDS011;33280;52.152;21.052;2022-11-11T07:07:43;26.13;;;10.97;;
47539;SDS011;33280;52.152;21.052;2022-11-11T07:10:48;21.33;;;11.00;;
47539;SDS011;33280;52.152;21.052;2022-11-11T07:13:16;20.97;;;10.37;;
47539;SDS011;33280;52.152;21.052;2022-11-11T07:15:49;21.70;;;11.07;;
47539;SDS011;33280;52.152;21.052;2022-11-11T07:18:18;26.23;;;11.33;;
47539;SDS011;33280;52.152;21.052;2022-11-11T07:20:52;26.27;;;11.10;;
47539;SDS011;33280;52.152;21.052;2022-11-11T07:23:22;24.50;;;11.10;;
47539;SDS011;33280;52.152;21.052;2022-11-11T07:26:02;21.03;;;10.37;;
47539;SDS011;33280;52.152;21.052;2022-11-11T07:28:56;21.00;;;10.30;;
47539;SDS011;33280;52.152;21.052;2022-11-11T07:31:24;18.67;;;9.90;;
47539;SDS011;33280;52.152;21.052;2022-11-11T07:33:55;21.73;;;10.60;;
47539;SDS011;33280;52.152;21.052;2022-11-11T07:39:15;20.40;;;10.07;;
47539;SDS011;33280;52.152;21.052;2022-11-11T07:41:57;26.00;;;10.77;;
47539;SDS011;33280;52.152;21.052;2022-11-11T07:44:27;22.77;;;9.90;;
47539;SDS011;33280;52.152;21.052;2022-11-11T07:46:55;22.47;;;10.13;;
47539;SDS011;33280;52.152;21.052;2022-11-11T07:49:22;22.93;;;10.40;;
47539;SDS011;33280;52.152;21.052;2022-11-11T07:51:49;25.30;;;9.97;;
47539;SDS011;33280;52.152;21.052;2022-11-11T07:54:17;22.33;;;10.20;;
47539;SDS011;33280;52.152;21.052;2022-11-11T07:56:52;24.03;;;10.33;;
47539;SDS011;33280;52.152;21.052;2022-11-11T07:59:20;17.93;;;9.80;;
47539;SDS011;33280;52.152;21.052;2022-11-11T08:01:47;24.90;;;10.27;;
47539;SDS011;33280;52.152;21.052;2022-11-11T08:04:15;23.90;;;10.23;;
47539;SDS011;33280;52.152;21.052;2022-11-11T08:06:45;21.90;;;10.17;;
47539;SDS011;33280;52.152;21.052;2022-11-11T08:09:29;27.67;;;10.63;;
47539;SDS011;33280;52.152;21.052;2022-11-11T08:12:14;21.20;;;10.00;;
47539;SDS011;33280;52.152;21.052;2022-11-11T08:15:12;16.00;;;8.97;;
47539;SDS011;33280;52.152;21.052;2022-11-11T08:17:49;21.10;;;9.80;;
47539;SDS011;33280;52.152;21.052;2022-11-11T08:20:17;18.03;;;9.73;;
47539;SDS011;33280;52.152;21.052;2022-11-11T08:22:44;21.93;;;9.83;;
47539;SDS011;33280;52.152;21.052;2022-11-11T08:25:31;20.20;;;8.83;;
47539;SDS011;33280;52.152;21.052;2022-11-11T08:28:02;20.40;;;9.43;;
47539;SDS011;33280;52.152;21.052;2022-11-11T08:30:31;16.83;;;9.30;;
47539;SDS011;33280;52.152;21.052;2022-11-11T08:33:00;22.67;;;10.50;;
47539;SDS011;33280;52.152;21.052;2022-11-11T08:36:06;20.63;;;9.23;;
47539;SDS011;33280;52.152;21.052;2022-11-11T08:38:46;18.23;;;9.57;;
47539;SDS011;33280;52.152;21.052;2022-11-11T08:41:14;20.73;;;8.83;;
47539;SDS011;33280;52.152;21.052;2022-11-11T08:43:56;26.40;;;9.23;;
47539;SDS011;33280;52.152;21.052;2022-11-11T08:46:35;21.43;;;8.50;;
47539;SDS011;33280;52.152;21.052;2022-11-11T08:49:14;17.63;;;9.03;;
47539;SDS011;33280;52.152;21.052;2022-11-11T08:52:02;19.53;;;8.63;;
47539;SDS011;33280;52.152;21.052;2022-11-11T08:54:29;18.63;;;8.00;;
47539;SDS011;33280;52.152;21.052;2022-11-11T08:57:01;18.53;;;8.47;;
47539;SDS011;33280;52.152;21.052;2022-11-11T08:59:28;21.07;;;8.23;;
47539;SDS011;33280;52.152;21.052;2022-11-11T09:02:03;16.23;;;8.00;;
47539;SDS011;33280;52.152;21.052;2022-11-11T09:07:49;17.77;;;8.10;;
47539;SDS011;33280;52.152;21.052;2022-11-11T09:10:16;15.73;;;8.20;;
47539;SDS011;33280;52.152;21.052;2022-11-11T09:13:07;16.13;;;7.83;;
47539;SDS011;33280;52.152;21.052;2022-11-11T09:15:40;21.57;;;8.47;;
47539;SDS011;33280;52.152;21.052;2022-11-11T09:18:22;17.37;;;7.90;;
47539;SDS011;33280;52.152;21.052;2022-11-11T09:20:50;15.73;;;7.43;;
47539;SDS011;33280;52.152;21.052;2022-11-11T09:23:17;14.90;;;7.17;;
47539;SDS011;33280;52.152;21.052;2022-11-11T09:25:44;19.63;;;8.00;;
47539;SDS011;33280;52.152;21.052;2022-11-11T09:28:17;18.67;;;7.37;;
47539;SDS011;33280;52.152;21.052;2022-11-11T09:30:44;20.33;;;7.67;;
47539;SDS011;33280;52.152;21.052;2022-11-11T09:33:16;16.07;;;6.73;;
47539;SDS011;33280;52.152;21.052;2022-11-11T09:35:45;16.67;;;7.30;;
47539;SDS011;33280;52.152;21.052;2022-11-11T09:38:12;18.20;;;7.73;;
47539;SDS011;33280;52.152;21.052;2022-11-11T09:40:48;17.27;;;7.33;;
47539;SDS011;33280;52.152;21.052;2022-11-11T09:43:52;15.63;;;7.17;;
47539;SDS011;33280;52.152;21.052;2022-11-11T09:46:31;14.63;;;6.87;;
47539;SDS011;33280;52.152;21.052;2022-11-11T09:49:37;14.23;;;7.23;;
47539;SDS011;33280;52.152;21.052;2022-11-11T09:52:30;17.17;;;8.17;;
47539;SDS011;33280;52.152;21.052;2022-11-11T09:58:13;16.90;;;7.50;;
47539;SDS011;33280;52.152;21.052;2022-11-11T10:01:06;15.73;;;7.20;;
47539;SDS011;33280;52.152;21.052;2022-11-11T10:03:45;18.53;;;7.83;;
47539;SDS011;33280;52.152;21.052;2022-11-11T10:06:23;14.83;;;7.00;;
47539;SDS011;33280;52.152;21.052;2022-11-11T10:09:00;20.07;;;7.37;;
47539;SDS011;33280;52.152;21.052;2022-11-11T10:12:23;15.03;;;7.10;;
47539;SDS011;33280;52.152;21.052;2022-11-11T10:21:15;16.27;;;6.43;;
47539;SDS011;33280;52.152;21.052;2022-11-11T10:23:53;16.07;;;6.40;;
47539;SDS011;33280;52.152;21.052;2022-11-11T10:26:39;18.87;;;6.40;;
47539;SDS011;33280;52.152;21.052;2022-11-11T10:29:18;15.57;;;6.63;;
47539;SDS011;33280;52.152;21.052;2022-11-11T10:32:31;20.77;;;6.40;;
47539;SDS011;33280;52.152;21.052;2022-11-11T10:35:29;14.30;;;6.37;;
47539;SDS011;33280;52.152;21.052;2022-11-11T10:40:56;15.57;;;6.70;;
47539;SDS011;33280;52.152;21.052;2022-11-11T10:43:34;16.00;;;6.20;;
47539;SDS011;33280;52.152;21.052;2022-11-11T10:49:19;11.37;;;5.67;;
47539;SDS011;33280;52.152;21.052;2022-11-11T10:55:31;20.60;;;6.77;;
47539;SDS011;33280;52.152;21.052;2022-11-11T11:01:57;14.30;;;6.10;;
47539;SDS011;33280;52.152;21.052;2022-11-11T11:05:19;14.93;;;6.20;;
47539;SDS011;33280;52.152;21.052;2022-11-11T11:15:51;18.80;;;6.57;;
47539;SDS011;33280;52.152;21.052;2022-11-11T11:18:35;15.33;;;6.30;;
47539;SDS011;33280;52.152;21.052;2022-11-11T11:21:10;15.27;;;7.00;;
47539;SDS011;33280;52.152;21.052;2022-11-11T11:23:40;15.73;;;6.70;;
47539;SDS011;33280;52.152;21.052;2022-11-11T11:26:16;19.33;;;7.03;;
47539;SDS011;33280;52.152;21.052;2022-11-11T11:28:54;15.27;;;7.07;;
47539;SDS011;33280;52.152;21.052;2022-11-11T11:31:39;14.13;;;6.30;;
47539;SDS011;33280;52.152;21.052;2022-11-11T11:40:27;16.23;;;7.03;;
47539;SDS011;33280;52.152;21.052;2022-11-11T11:43:36;16.83;;;6.73;;
47539;SDS011;33280;52.152;21.052;2022-11-11T11:46:15;15.67;;;7.30;;
47539;SDS011;33280;52.152;21.052;2022-11-11T11:55:21;15.47;;;7.27;;
47539;SDS011;33280;52.152;21.052;2022-11-11T12:21:14;19.43;;;7.43;;
47539;SDS011;33280;52.152;21.052;2022-11-11T12:32:15;14.33;;;7.13;;
47539;SDS011;33280;52.152;21.052;2022-11-11T12:35:02;12.97;;;6.47;;
47539;SDS011;33280;52.152;21.052;2022-11-11T12:50:07;17.10;;;6.80;;
47539;SDS011;33280;52.152;21.052;2022-11-11T12:53:03;19.73;;;7.60;;
47539;SDS011;33280;52.152;21.052;2022-11-11T13:08:25;14.23;;;6.30;;
47539;SDS011;33280;52.152;21.052;2022-11-11T13:17:12;17.70;;;6.17;;
47539;SDS011;33280;52.152;21.052;2022-11-11T13:19:42;13.27;;;6.60;;
47539;SDS011;33280;52.152;21.052;2022-11-11T13:37:46;15.93;;;6.37;;
47539;SDS011;33280;52.152;21.052;2022-11-11T13:40:36;13.00;;;6.07;;
47539;SDS011;33280;52.152;21.052;2022-11-11T13:43:15;15.23;;;6.17;;
47539;SDS011;33280;52.152;21.052;2022-11-11T13:45:52;16.77;;;5.87;;
47539;SDS011;33280;52.152;21.052;2022-11-11T13:48:45;14.73;;;5.73;;
47539;SDS011;33280;52.152;21.052;2022-11-11T13:54:00;10.87;;;5.33;;
47539;SDS011;33280;52.152;21.052;2022-11-11T13:59:03;18.17;;;6.10;;
47539;SDS011;33280;52.152;21.052;2022-11-11T14:01:34;12.10;;;5.80;;
47539;SDS011;33280;52.152;21.052;2022-11-11T14:04:09;14.23;;;5.23;;
47539;SDS011;33280;52.152;21.052;2022-11-11T14:09:50;11.13;;;5.50;;
47539;SDS011;33280;52.152;21.052;2022-11-11T14:12:34;12.13;;;5.37;;
47539;SDS011;33280;52.152;21.052;2022-11-11T14:20:44;15.87;;;6.57;;
47539;SDS011;33280;52.152;21.052;2022-11-11T14:23:37;10.93;;;5.50;;
47539;SDS011;33280;52.152;21.052;2022-11-11T14:26:19;14.10;;;6.10;;
47539;SDS011;33280;52.152;21.052;2022-11-11T14:28:57;9.43;;;5.73;;
47539;SDS011;33280;52.152;21.052;2022-11-11T14:31:42;17.93;;;5.97;;
47539;SDS011;33280;52.152;21.052;2022-11-11T14:40:31;13.37;;;6.50;;
47539;SDS011;33280;52.152;21.052;2022-11-11T14:53:45;16.90;;;7.90;;
47539;SDS011;33280;52.152;21.052;2022-11-11T14:56:22;14.70;;;7.93;;
47539;SDS011;33280;52.152;21.052;2022-11-11T14:58:57;16.80;;;8.67;;
47539;SDS011;33280;52.152;21.052;2022-11-11T15:01:44;17.27;;;9.00;;
47539;SDS011;33280;52.152;21.052;2022-11-11T15:04:29;20.30;;;10.00;;
47539;SDS011;33280;52.152;21.052;2022-11-11T15:23:16;20.23;;;10.03;;
47539;SDS011;33280;52.152;21.052;2022-11-11T15:26:11;19.07;;;9.40;;
47539;SDS011;33280;52.152;21.052;2022-11-11T15:31:41;22.27;;;10.20;;
47539;SDS011;33280;52.152;21.052;2022-11-11T15:34:28;19.23;;;10.87;;
47539;SDS011;33280;52.152;21.052;2022-11-11T15:37:17;20.03;;;10.63;;
47539;SDS011;33280;52.152;21.052;2022-11-11T15:39:51;17.73;;;10.80;;
47539;SDS011;33280;52.152;21.052;2022-11-11T15:42:42;21.00;;;10.70;;
47539;SDS011;33280;52.152;21.052;2022-11-11T15:47:47;22.50;;;11.10;;
47539;SDS011;33280;52.152;21.052;2022-11-11T15:50:28;21.40;;;10.90;;
47539;SDS011;33280;52.152;21.052;2022-11-11T15:52:58;21.33;;;10.50;;
47539;SDS011;33280;52.152;21.052;2022-11-11T15:55:34;19.60;;;10.47;;
47539;SDS011;33280;52.152;21.052;2022-11-11T15:58:13;19.50;;;10.43;;
47539;SDS011;33280;52.152;21.052;2022-11-11T16:00:46;23.27;;;10.43;;
47539;SDS011;33280;52.152;21.052;2022-11-11T16:03:39;23.00;;;11.23;;
47539;SDS011;33280;52.152;21.052;2022-11-11T16:06:11;17.93;;;10.27;;
47539;SDS011;33280;52.152;21.052;2022-11-11T16:08:46;21.67;;;10.00;;
47539;SDS011;33280;52.152;21.052;2022-11-11T16:11:24;19.70;;;9.90;;
47539;SDS011;33280;52.152;21.052;2022-11-11T16:13:56;22.63;;;9.90;;
47539;SDS011;33280;52.152;21.052;2022-11-11T16:16:45;21.07;;;9.93;;
47539;SDS011;33280;52.152;21.052;2022-11-11T16:22:10;17.27;;;9.07;;
47539;SDS011;33280;52.152;21.052;2022-11-11T16:24:49;21.27;;;9.60;;
47539;SDS011;33280;52.152;21.052;2022-11-11T16:28:00;17.67;;;8.70;;
47539;SDS011;33280;52.152;21.052;2022-11-11T16:30:31;23.97;;;9.00;;
47539;SDS011;33280;52.152;21.052;2022-11-11T16:33:00;19.17;;;9.13;;
47539;SDS011;33280;52.152;21.052;2022-11-11T16:35:30;21.50;;;8.67;;
47539;SDS011;33280;52.152;21.052;2022-11-11T16:38:02;16.27;;;8.50;;
47539;SDS011;33280;52.152;21.052;2022-11-11T16:43:20;16.67;;;8.63;;
47539;SDS011;33280;52.152;21.052;2022-11-11T16:45:51;18.77;;;9.17;;
47539;SDS011;33280;52.152;21.052;2022-11-11T16:48:44;21.50;;;9.17;;
47539;SDS011;33280;52.152;21.052;2022-11-11T16:54:34;23.43;;;10.10;;
47539;SDS011;33280;52.152;21.052;2022-11-11T16:57:31;18.33;;;9.67;;
47539;SDS011;33280;52.152;21.052;2022-11-11T17:03:23;18.53;;;9.93;;
47539;SDS011;33280;52.152;21.052;2022-11-11T17:05:55;24.43;;;10.57;;
47539;SDS011;33280;52.152;21.052;2022-11-11T17:11:02;20.97;;;10.43;;
47539;SDS011;33280;52.152;21.052;2022-11-11T17:13:34;22.03;;;10.50;;
47539;SDS011;33280;52.152;21.052;2022-11-11T17:16:11;20.53;;;10.60;;
47539;SDS011;33280;52.152;21.052;2022-11-11T17:18:40;20.80;;;10.40;;
47539;SDS011;33280;52.152;21.052;2022-11-11T17:21:07;20.37;;;10.50;;
47539;SDS011;33280;52.152;21.052;2022-11-11T17:23:37;20.27;;;10.20;;
47539;SDS011;33280;52.152;21.052;2022-11-11T17:26:06;17.80;;;10.50;;
47539;SDS011;33280;52.152;21.052;2022-11-11T17:28:42;21.37;;;11.23;;
47539;SDS011;33280;52.152;21.052;2022-11-11T17:31:11;21.33;;;10.83;;
47539;SDS011;33280;52.152;21.052;2022-11-11T17:33:41;20.97;;;10.73;;
47539;SDS011;33280;52.152;21.052;2022-11-11T17:36:09;24.53;;;11.10;;
47539;SDS011;33280;52.152;21.052;2022-11-11T17:38:39;24.00;;;11.00;;
47539;SDS011;33280;52.152;21.052;2022-11-11T17:41:06;19.40;;;10.53;;
47539;SDS011;33280;52.152;21.052;2022-11-11T17:43:35;23.30;;;10.73;;
47539;SDS011;33280;52.152;21.052;2022-11-11T17:46:04;21.83;;;11.47;;
47539;SDS011;33280;52.152;21.052;2022-11-11T17:48:31;19.63;;;10.77;;
47539;SDS011;33280;52.152;21.052;2022-11-11T17:51:01;24.50;;;11.83;;
47539;SDS011;33280;52.152;21.052;2022-11-11T17:53:32;24.00;;;11.50;;
47539;SDS011;33280;52.152;21.052;2022-11-11T17:56:03;28.43;;;12.23;;
47539;SDS011;33280;52.152;21.052;2022-11-11T17:58:35;27.17;;;12.40;;
47539;SDS011;33280;52.152;21.052;2022-11-11T18:01:10;25.97;;;11.90;;
47539;SDS011;33280;52.152;21.052;2022-11-11T18:04:33;23.77;;;11.53;;
47539;SDS011;33280;52.152;21.052;2022-11-11T18:07:21;24.53;;;12.30;;
47539;SDS011;33280;52.152;21.052;2022-11-11T18:09:52;25.40;;;13.13;;
47539;SDS011;33280;52.152;21.052;2022-11-11T18:12:19;24.47;;;12.00;;
47539;SDS011;33280;52.152;21.052;2022-11-11T18:14:47;26.60;;;12.80;;
47539;SDS011;33280;52.152;21.052;2022-11-11T18:17:14;28.33;;;12.80;;
47539;SDS011;33280;52.152;21.052;2022-11-11T18:19:44;25.17;;;13.07;;
47539;SDS011;33280;52.152;21.052;2022-11-11T18:22:15;25.80;;;12.17;;
47539;SDS011;33280;52.152;21.052;2022-11-11T18:24:45;27.00;;;12.70;;
47539;SDS011;33280;52.152;21.052;2022-11-11T18:27:12;25.80;;;13.33;;
47539;SDS011;33280;52.152;21.052;2022-11-11T18:29:39;21.90;;;12.77;;